createdAt,value
2018-09-01T00:00:01.114Z,101637.27
2018-09-01T00:02:28.141Z,101638.05
2018-09-01T00:04:55.108Z,101643.17
2018-09-01T00:07:22.205Z,101643.27
2018-09-01T00:09:49.284Z,101643.17
2018-09-01T00:12:16.273Z,101646.05
2018-09-01T00:14:43.299Z,101654.69
2018-09-01T00:17:14.888Z,101652.12
2018-09-01T00:19:41.879Z,101651.69
2018-09-01T00:22:08.874Z,101657.72
2018-09-01T00:24:35.935Z,101654.00
2018-09-01T00:27:03.015Z,101659.55
2018-09-01T00:29:30.007Z,101660.26
2018-09-01T00:31:57.025Z,101659.25
2018-09-01T00:34:23.998Z,101663.81
2018-09-01T00:36:50.991Z,101665.42
2018-09-01T00:39:18.155Z,101666.73
2018-09-01T00:41:45.152Z,101670.20
2018-09-01T00:44:12.124Z,101666.64
2018-09-01T00:46:39.118Z,101665.26
2018-09-01T00:49:06.091Z,101674.11
2018-09-01T00:51:33.156Z,101672.11
2018-09-01T00:54:00.163Z,101673.28
2018-09-01T00:56:27.227Z,101671.90
2018-09-01T00:58:54.188Z,101672.20
2018-09-01T01:01:21.175Z,101672.20
2018-09-01T01:03:48.139Z,101675.98
2018-09-01T01:06:15.143Z,101668.20
2018-09-01T01:08:42.124Z,101673.41
2018-09-01T01:11:09.124Z,101664.56
2018-09-01T01:13:36.189Z,101672.41
2018-09-01T01:16:03.184Z,101678.94
2018-09-01T01:18:30.467Z,101674.20
2018-09-01T01:20:57.519Z,101671.52
2018-09-01T01:23:24.588Z,101674.83
2018-09-01T01:25:52.193Z,101679.41
2018-09-01T01:28:19.202Z,101671.85
2018-09-01T01:30:46.279Z,101672.30
2018-09-01T01:33:13.267Z,101681.85
2018-09-01T01:35:40.231Z,101676.92
2018-09-01T01:38:07.200Z,101679.55
2018-09-01T01:40:34.207Z,101682.17
2018-09-01T01:43:01.329Z,101684.91
2018-09-01T01:45:29.479Z,101675.56
2018-09-01T01:47:57.180Z,101684.14
2018-09-01T01:50:24.253Z,101687.65
2018-09-01T01:52:51.245Z,101688.58
2018-09-01T01:55:18.539Z,101689.84
2018-09-01T01:57:48.575Z,101681.61
2018-09-01T02:00:15.555Z,101694.98
2018-09-01T02:02:42.567Z,101696.81
2018-09-01T02:05:14.140Z,101699.94
2018-09-01T02:07:41.332Z,101695.16
2018-09-01T02:10:08.607Z,101694.94
2018-09-01T02:12:35.661Z,101698.68
2018-09-01T02:15:02.796Z,101698.25
2018-09-01T02:17:29.841Z,101699.28
2018-09-01T02:19:56.812Z,101697.97
2018-09-01T02:22:23.788Z,101697.84
2018-09-01T02:24:50.866Z,101698.81
2018-09-01T02:27:17.863Z,101704.18
2018-09-01T02:29:44.835Z,101702.05
2018-09-01T02:32:11.891Z,101711.16
2018-09-01T02:34:38.872Z,101709.44
2018-09-01T02:37:05.844Z,101717.52
2018-09-01T02:39:32.827Z,101713.98
2018-09-01T02:41:59.799Z,101713.67
2018-09-01T02:44:27.030Z,101717.94
2018-09-01T02:46:54.177Z,101717.52
2018-09-01T02:49:21.276Z,101723.33
2018-09-01T02:51:48.607Z,101721.73
2018-09-01T02:54:15.577Z,101719.23
2018-09-01T02:56:42.603Z,101722.29
2018-09-01T02:59:10.328Z,101723.93
2018-09-01T03:01:37.352Z,101721.13
2018-09-01T03:04:05.174Z,101724.89
2018-09-01T03:06:44.407Z,101719.62
2018-09-01T03:09:11.451Z,101720.50
2018-09-01T03:11:38.465Z,101715.08
2018-09-01T03:14:05.580Z,101726.74
2018-09-01T03:16:32.925Z,101725.73
2018-09-01T03:18:59.908Z,101721.28
2018-09-01T03:21:27.412Z,101721.13
2018-09-01T03:23:54.477Z,101724.67
2018-09-01T03:26:21.447Z,101728.17
2018-09-01T03:28:48.450Z,101734.16
2018-09-01T03:31:15.416Z,101734.16
2018-09-01T03:33:42.406Z,101739.28
2018-09-01T03:36:09.375Z,101739.38
2018-09-01T03:38:36.427Z,101737.08
2018-09-01T03:41:03.683Z,101734.41
2018-09-01T03:43:30.741Z,101732.00
2018-09-01T03:45:57.744Z,101742.06
2018-09-01T03:48:24.740Z,101734.82
2018-09-01T03:50:51.813Z,101731.26
2018-09-01T03:53:18.835Z,101731.49
2018-09-01T03:55:45.811Z,101732.84
2018-09-01T03:58:13.073Z,101735.52
2018-09-01T04:00:40.196Z,101725.69
2018-09-01T04:03:07.164Z,101737.98
2018-09-01T04:05:34.667Z,101737.33
2018-09-01T04:08:01.649Z,101734.82
2018-09-01T04:10:28.739Z,101733.85
2018-09-01T04:12:56.011Z,101736.85
2018-09-01T04:15:22.981Z,101736.59
2018-09-01T04:17:49.999Z,101741.34
2018-09-01T04:20:17.277Z,101737.08
2018-09-01T04:22:44.407Z,101738.44
2018-09-01T04:25:11.466Z,101734.03
2018-09-01T04:27:38.822Z,101734.87
2018-09-01T04:30:06.132Z,101729.17
2018-09-01T04:32:33.133Z,101731.20
2018-09-01T04:35:00.464Z,101737.56
2018-09-01T04:37:27.423Z,101743.09
2018-09-01T04:39:54.488Z,101750.88
2018-09-01T04:42:21.591Z,101745.37
2018-09-01T04:44:48.648Z,101752.87
2018-09-01T04:47:15.724Z,101756.80
2018-09-01T04:49:42.720Z,101760.55
2018-09-01T04:52:09.907Z,101757.26
2018-09-01T04:54:36.888Z,101757.00
2018-09-01T04:57:04.219Z,101759.46
2018-09-01T04:59:31.215Z,101753.88
2018-09-01T05:01:58.248Z,101758.59
2018-09-01T05:04:25.252Z,101762.34
2018-09-01T05:06:52.227Z,101767.38
2018-09-01T05:09:19.293Z,101775.70
2018-09-01T05:11:46.583Z,101777.29
2018-09-01T05:14:13.561Z,101777.61
2018-09-01T05:16:40.576Z,101775.73
2018-09-01T05:19:07.818Z,101781.77
2018-09-01T05:21:34.807Z,101778.89
2018-09-01T05:24:01.966Z,101780.28
2018-09-01T05:26:28.983Z,101782.82
2018-09-01T05:28:56.003Z,101784.55
2018-09-01T05:31:22.977Z,101781.80
2018-09-01T05:33:50.200Z,101791.29
2018-09-01T05:36:17.175Z,101797.09
2018-09-01T05:38:44.232Z,101797.35
2018-09-01T05:41:11.301Z,101801.36
2018-09-01T05:43:38.304Z,101795.78
2018-09-01T05:46:05.401Z,101799.14
2018-09-01T05:48:32.464Z,101809.19
2018-09-01T05:50:59.444Z,101806.60
2018-09-01T05:53:26.437Z,101805.73
2018-09-01T05:55:53.401Z,101805.56
2018-09-01T05:58:20.363Z,101810.02
2018-09-01T06:00:49.162Z,101815.25
2018-09-01T06:03:16.611Z,101817.66
2018-09-01T06:05:43.955Z,101817.03
2018-09-01T06:08:11.052Z,101822.76
2018-09-01T06:10:38.027Z,101826.00
2018-09-01T06:13:05.172Z,101827.86
2018-09-01T06:15:32.462Z,101831.41
2018-09-01T06:17:59.492Z,101823.92
2018-09-01T06:20:26.451Z,101832.31
2018-09-01T06:22:53.617Z,101833.59
2018-09-01T06:25:20.682Z,101840.42
2018-09-01T06:27:49.883Z,101842.64
2018-09-01T06:30:21.086Z,101853.39
2018-09-01T06:32:48.337Z,101853.66
2018-09-01T06:35:15.313Z,101850.53
2018-09-01T06:37:42.369Z,101861.02
2018-09-01T06:40:09.439Z,101861.59
2018-09-01T06:42:36.412Z,101866.41
2018-09-01T06:45:03.494Z,101871.41
2018-09-01T06:47:30.651Z,101868.75
2018-09-01T06:49:57.988Z,101870.42
2018-09-01T06:52:25.047Z,101879.55
2018-09-01T06:54:52.025Z,101883.80
2018-09-01T06:57:19.255Z,101884.47
2018-09-01T06:59:46.228Z,101887.59
2018-09-01T07:02:13.199Z,101892.64
2018-09-01T07:04:40.251Z,101893.78
2018-09-01T07:07:07.239Z,101894.07
2018-09-01T07:09:34.239Z,101898.62
2018-09-01T07:12:01.209Z,101894.11
2018-09-01T07:14:28.199Z,101899.90
2018-09-01T07:16:55.168Z,101904.15
2018-09-01T07:19:22.146Z,101912.72
2018-09-01T07:21:49.155Z,101912.67
2018-09-01T07:24:16.128Z,101913.25
2018-09-01T07:26:43.389Z,101922.13
2018-09-01T07:29:10.419Z,101926.08
2018-09-01T07:31:37.700Z,101928.37
2018-09-01T07:34:04.464Z,101938.11
2018-09-01T07:36:31.444Z,101935.48
2018-09-01T07:38:58.616Z,101940.66
2018-09-01T07:41:25.924Z,101946.48
2018-09-01T07:43:52.896Z,101939.70
2018-09-01T07:46:19.988Z,101947.70
2018-09-01T07:48:47.172Z,101952.63
2018-09-01T07:51:14.232Z,101951.89
2018-09-01T07:53:41.212Z,101954.91
2018-09-01T07:56:08.310Z,101960.55
2018-09-01T07:58:35.237Z,101954.55
2018-09-01T08:01:02.375Z,101962.70
2018-09-01T08:03:29.716Z,101957.37
2018-09-01T08:05:56.720Z,101961.36
2018-09-01T08:08:24.007Z,101956.17
2018-09-01T08:10:51.184Z,101960.06
2018-09-01T08:13:18.199Z,101960.25
2018-09-01T08:15:45.190Z,101961.32
2018-09-01T08:18:12.165Z,101963.41
2018-09-01T08:20:39.159Z,101963.84
2018-09-01T08:23:06.208Z,101968.68
2018-09-01T08:25:33.255Z,101970.00
2018-09-01T08:28:00.251Z,101968.70
2018-09-01T08:30:27.468Z,101971.53
2018-09-01T08:32:54.807Z,101974.55
2018-09-01T08:35:21.787Z,101969.73
2018-09-01T08:37:49.166Z,101970.42
2018-09-01T08:40:16.298Z,101974.91
2018-09-01T08:42:43.324Z,101977.12
2018-09-01T08:45:10.439Z,101979.91
2018-09-01T08:47:37.568Z,101977.66
2018-09-01T08:50:04.948Z,101984.16
2018-09-01T08:52:32.048Z,101988.50
2018-09-01T08:54:59.144Z,101997.05
2018-09-01T08:57:26.127Z,101995.07
2018-09-01T08:59:53.436Z,101992.69
2018-09-01T09:02:20.410Z,101993.21
2018-09-01T09:04:47.461Z,101997.64
2018-09-01T09:07:14.893Z,101995.33
2018-09-01T09:09:41.996Z,101997.02
2018-09-01T09:12:08.975Z,102001.50
2018-09-01T09:14:36.327Z,102004.03
2018-09-01T09:17:03.370Z,102004.06
2018-09-01T09:19:30.408Z,101997.88
2018-09-01T09:21:57.676Z,102005.88
2018-09-01T09:24:24.663Z,102004.14
2018-09-01T09:26:51.646Z,102007.94
2018-09-01T09:29:18.649Z,102013.50
2018-09-01T09:31:45.716Z,102012.45
2018-09-01T09:34:12.712Z,102012.74
2018-09-01T09:36:40.057Z,102012.31
2018-09-01T09:39:08.124Z,102014.05
2018-09-01T09:41:35.110Z,102015.42
2018-09-01T09:44:02.116Z,102016.94
2018-09-01T09:46:29.101Z,102013.63
2018-09-01T09:48:56.243Z,102014.43
2018-09-01T09:51:23.571Z,102018.09
2018-09-01T09:53:50.561Z,102017.22
2018-09-01T09:56:17.540Z,102016.00
2018-09-01T09:58:44.827Z,102018.77
2018-09-01T10:01:17.520Z,102019.89
2018-09-01T10:03:44.782Z,102021.48
2018-09-01T10:06:11.770Z,102022.09
2018-09-01T10:08:38.848Z,102020.36
2018-09-01T10:11:05.986Z,102020.44
2018-09-01T10:13:32.902Z,102020.18
2018-09-01T10:15:59.952Z,102012.54
2018-09-01T10:18:26.973Z,102010.23
2018-09-01T10:20:54.060Z,102009.52
2018-09-01T10:23:21.325Z,102008.73
2018-09-01T10:25:48.423Z,102012.37
2018-09-01T10:28:15.419Z,102011.73
2018-09-01T10:30:42.488Z,102011.33
2018-09-01T10:33:09.474Z,102013.86
2018-09-01T10:35:36.564Z,102015.07
2018-09-01T10:38:03.695Z,102016.89
2018-09-01T10:40:30.685Z,102014.56
2018-09-01T10:42:57.675Z,102006.54
2018-09-01T10:45:24.751Z,102013.78
2018-09-01T10:47:51.861Z,102008.45
2018-09-01T10:50:18.839Z,102007.11
2018-09-01T10:52:46.106Z,102010.08
2018-09-01T10:55:13.167Z,102005.58
2018-09-01T10:57:40.292Z,102001.90
2018-09-01T11:00:07.961Z,102004.45
2018-09-01T11:02:34.951Z,101997.55
2018-09-01T11:05:02.129Z,102008.88
2018-09-01T11:07:29.150Z,102001.15
2018-09-01T11:09:56.172Z,102008.39
2018-09-01T11:12:23.598Z,102002.03
2018-09-01T11:14:50.699Z,102005.06
2018-09-01T11:17:17.793Z,102006.22
2018-09-01T11:19:44.819Z,102007.53
2018-09-01T11:22:12.395Z,102010.45
2018-09-01T11:24:39.391Z,102004.14
2018-09-01T11:27:06.396Z,102009.95
2018-09-01T11:29:33.543Z,102010.36
2018-09-01T11:32:00.580Z,102017.92
2018-09-01T11:34:27.641Z,102013.50
2018-09-01T11:36:54.916Z,102015.92
2018-09-01T11:39:22.060Z,102007.67
2018-09-01T11:41:49.161Z,102012.50
2018-09-01T11:44:16.236Z,102013.44
2018-09-01T11:46:43.285Z,102014.72
2018-09-01T11:49:11.061Z,102011.66
2018-09-01T11:51:38.069Z,102014.86
2018-09-01T11:54:05.425Z,102009.21
2018-09-01T11:56:32.563Z,102015.27
2018-09-01T11:58:59.526Z,102015.25
2018-09-01T12:01:26.521Z,102014.00
2018-09-01T12:03:53.689Z,102012.27
2018-09-01T12:06:20.676Z,102014.82
2018-09-01T12:08:47.740Z,102009.13
2018-09-01T12:11:14.762Z,102006.66
2018-09-01T12:13:41.745Z,102006.56
2018-09-01T12:16:08.793Z,102014.55
2018-09-01T12:18:35.776Z,102010.94
2018-09-01T12:21:02.999Z,102011.55
2018-09-01T12:23:29.984Z,102011.84
2018-09-01T12:25:57.056Z,102009.99
2018-09-01T12:28:24.082Z,102008.70
2018-09-01T12:30:51.151Z,102012.14
2018-09-01T12:33:18.212Z,102014.60
2018-09-01T12:35:45.248Z,102017.44
2018-09-01T12:38:12.637Z,102022.15
2018-09-01T12:40:39.691Z,102014.14
2018-09-01T12:43:06.720Z,102016.32
2018-09-01T12:45:33.760Z,102017.56
2018-09-01T12:48:00.803Z,102014.39
2018-09-01T12:50:27.811Z,102014.80
2018-09-01T12:52:54.974Z,102018.73
2018-09-01T12:55:21.981Z,102019.81
2018-09-01T12:57:48.984Z,102009.50
2018-09-01T13:00:16.090Z,102011.64
2018-09-01T13:02:43.179Z,102009.40
2018-09-01T13:05:10.351Z,102006.32
2018-09-01T13:07:37.408Z,102005.27
2018-09-01T13:10:04.479Z,102007.09
2018-09-01T13:12:31.888Z,102012.83
2018-09-01T13:14:58.868Z,102009.95
2018-09-01T13:17:25.983Z,102008.72
2018-09-01T13:19:52.962Z,102009.63
2018-09-01T13:22:19.946Z,102001.70
2018-09-01T13:24:46.944Z,102003.64
2018-09-01T13:27:13.951Z,102008.34
2018-09-01T13:29:41.024Z,102006.30
2018-09-01T13:32:08.119Z,101998.63
2018-09-01T13:34:35.248Z,101996.50
2018-09-01T13:37:02.323Z,101995.26
2018-09-01T13:39:29.704Z,101994.05
2018-09-01T13:41:56.715Z,101992.60
2018-09-01T13:44:23.695Z,101996.87
2018-09-01T13:46:50.764Z,101991.88
2018-09-01T13:49:17.888Z,101995.31
2018-09-01T13:51:44.875Z,102002.33
2018-09-01T13:54:11.856Z,102004.24
2018-09-01T13:56:39.144Z,102000.16
2018-09-01T13:59:06.133Z,101997.30
2018-09-01T14:01:33.126Z,102006.20
2018-09-01T14:04:00.380Z,102005.95
2018-09-01T14:06:27.451Z,102006.20
2018-09-01T14:08:54.443Z,102008.30
2018-09-01T14:11:21.464Z,102013.27
2018-09-01T14:13:48.547Z,102016.45
2018-09-01T14:16:15.549Z,102005.70
2018-09-01T14:18:42.644Z,102000.67
2018-09-01T14:21:09.771Z,102004.97
2018-09-01T14:23:36.711Z,102002.99
2018-09-01T14:26:03.704Z,102009.39
2018-09-01T14:28:30.766Z,102013.66
2018-09-01T14:30:57.755Z,102011.14
2018-09-01T14:33:24.734Z,102014.23
2018-09-01T14:35:51.872Z,102009.23
2018-09-01T14:38:19.150Z,102002.47
2018-09-01T14:40:46.132Z,102002.56
2018-09-01T14:43:13.134Z,101996.77
2018-09-01T14:45:40.104Z,101989.16
2018-09-01T14:48:07.280Z,102000.58
2018-09-01T14:50:34.479Z,101999.94
2018-09-01T14:53:01.496Z,101995.17
2018-09-01T14:55:28.577Z,101996.92
2018-09-01T14:57:55.621Z,102000.78
2018-09-01T15:00:22.607Z,101999.78
2018-09-01T15:02:49.576Z,101998.31
2018-09-01T15:05:16.612Z,101991.61
2018-09-01T15:07:43.603Z,101987.77
2018-09-01T15:10:10.606Z,101989.92
2018-09-01T15:12:37.640Z,101994.41
2018-09-01T15:15:04.692Z,101994.78
2018-09-01T15:17:31.671Z,101996.55
2018-09-01T15:19:58.661Z,101995.34
2018-09-01T15:22:25.987Z,101997.12
2018-09-01T15:24:53.054Z,101997.02
2018-09-01T15:27:20.058Z,102002.27
2018-09-01T15:29:47.055Z,101998.67
2018-09-01T15:32:14.024Z,102004.77
2018-09-01T15:34:41.323Z,101999.42
2018-09-01T15:37:08.300Z,102005.22
2018-09-01T15:39:35.274Z,102004.21
2018-09-01T15:42:02.572Z,102000.13
2018-09-01T15:44:29.595Z,102001.27
2018-09-01T15:46:56.588Z,102002.56
2018-09-01T15:49:23.667Z,101992.06
2018-09-01T15:51:50.691Z,102007.69
2018-09-01T15:54:17.699Z,102009.53
2018-09-01T15:56:44.999Z,102011.52
2018-09-01T15:59:12.383Z,102013.95
2018-09-01T16:01:39.439Z,102014.81
2018-09-01T16:04:06.435Z,102016.84
2018-09-01T16:06:33.447Z,102022.52
2018-09-01T16:09:00.627Z,102016.42
2018-09-01T16:11:27.593Z,102021.16
2018-09-01T16:13:54.656Z,102014.31
2018-09-01T16:16:21.657Z,102018.98
2018-09-01T16:18:48.648Z,102017.04
2018-09-01T16:21:15.731Z,102022.94
2018-09-01T16:23:42.780Z,102023.50
2018-09-01T16:26:09.776Z,102023.06
2018-09-01T16:28:36.845Z,102028.64
2018-09-01T16:31:03.865Z,102024.95
2018-09-01T16:33:30.936Z,102024.02
2018-09-01T16:35:57.910Z,102017.02
2018-09-01T16:38:24.960Z,102032.65
2018-09-01T16:40:52.059Z,102029.28
2018-09-01T16:43:19.131Z,102028.73
2018-09-01T16:45:46.273Z,102031.42
2018-09-01T16:48:13.265Z,102033.98
2018-09-01T16:50:40.243Z,102036.20
2018-09-01T16:53:07.295Z,102034.75
2018-09-01T16:55:34.393Z,102035.80
2018-09-01T16:58:01.653Z,102040.98
2018-09-01T17:00:28.658Z,102040.16
2018-09-01T17:02:55.708Z,102037.37
2018-09-01T17:05:22.702Z,102042.98
2018-09-01T17:07:49.703Z,102038.14
2018-09-01T17:10:16.700Z,102038.47
2018-09-01T17:12:43.772Z,102044.10
2018-09-01T17:15:10.820Z,102041.27
2018-09-01T17:17:37.841Z,102041.74
2018-09-01T17:20:05.056Z,102041.52
2018-09-01T17:22:32.022Z,102042.39
2018-09-01T17:24:59.008Z,102042.30
2018-09-01T17:27:25.987Z,102046.59
2018-09-01T17:29:53.055Z,102044.41
2018-09-01T17:32:20.219Z,102045.12
2018-09-01T17:34:47.303Z,102048.64
2018-09-01T17:37:14.377Z,102046.95
2018-09-01T17:39:41.759Z,102053.51
2018-09-01T17:42:08.745Z,102051.88
2018-09-01T17:44:35.720Z,102058.10
2018-09-01T17:47:02.908Z,102058.23
2018-09-01T17:49:29.997Z,102057.16
2018-09-01T17:51:57.018Z,102059.05
2018-09-01T17:54:24.208Z,102056.28
2018-09-01T17:56:51.234Z,102056.50
2018-09-01T17:59:18.223Z,102054.80
2018-09-01T18:01:45.583Z,102057.05
2018-09-01T18:04:12.635Z,102057.84
2018-09-01T18:06:39.659Z,102057.52
2018-09-01T18:09:07.112Z,102062.42
2018-09-01T18:11:34.624Z,102062.92
2018-09-01T18:14:01.655Z,102065.78
2018-09-01T18:16:28.685Z,102065.92
2018-09-01T18:18:55.636Z,102075.53
2018-09-01T18:21:22.891Z,102078.09
2018-09-01T18:23:49.875Z,102082.00
2018-09-01T18:26:16.850Z,102077.19
2018-09-01T18:28:43.928Z,102090.03
2018-09-01T18:31:10.996Z,102090.02
2018-09-01T18:33:37.992Z,102091.23
2018-09-01T18:36:05.123Z,102087.82
2018-09-01T18:38:32.119Z,102091.91
2018-09-01T18:40:59.263Z,102092.50
2018-09-01T18:43:26.364Z,102100.11
2018-09-01T18:45:53.435Z,102102.67
2018-09-01T18:48:20.435Z,102102.52
2018-09-01T18:50:47.414Z,102110.43
2018-09-01T18:53:14.920Z,102118.23
2018-09-01T18:55:41.895Z,102120.12
2018-09-01T18:58:09.041Z,102116.80
2018-09-01T19:00:36.090Z,102127.19
2018-09-01T19:03:03.121Z,102123.64
2018-09-01T19:05:30.380Z,102128.09
2018-09-01T19:07:57.365Z,102128.89
2018-09-01T19:10:24.510Z,102132.30
2018-09-01T19:12:51.672Z,102131.61
2018-09-01T19:15:18.657Z,102139.53
2018-09-01T19:17:45.630Z,102137.58
2018-09-01T19:20:12.619Z,102142.23
2018-09-01T19:22:39.606Z,102137.77
2018-09-01T19:25:06.980Z,102133.00
2018-09-01T19:27:34.252Z,102129.97
2018-09-01T19:30:01.236Z,102135.33
2018-09-01T19:35:08.135Z,102134.48
2018-09-01T19:37:35.100Z,102139.49
2018-09-01T19:40:02.091Z,102139.69
2018-09-01T19:42:29.115Z,102133.95
2018-09-01T19:44:56.174Z,102135.23
2018-09-01T19:47:23.100Z,102137.19
2018-09-01T19:49:50.101Z,102141.86
2018-09-01T19:52:17.103Z,102146.84
2018-09-01T19:54:44.082Z,102137.98
2018-09-01T19:57:11.071Z,102132.31
2018-09-01T19:59:38.041Z,102138.25
2018-09-01T20:02:05.339Z,102140.42
2018-09-01T20:04:32.372Z,102136.83
2018-09-01T20:06:59.332Z,102137.50
2018-09-01T20:09:26.314Z,102137.20
2018-09-01T20:11:53.632Z,102134.56
2018-09-01T20:14:20.696Z,102133.41
2018-09-01T20:16:48.611Z,102132.95
2018-09-01T20:19:15.608Z,102135.78
2018-09-01T20:21:42.931Z,102139.38
2018-09-01T20:24:10.235Z,102130.70
2018-09-01T20:26:37.270Z,102137.49
2018-09-01T20:29:11.223Z,102133.86
2018-09-01T20:31:38.240Z,102134.45
2018-09-01T20:34:05.238Z,102139.38
2018-09-01T20:36:32.223Z,102137.92
2018-09-01T20:38:59.347Z,102145.51
2018-09-01T20:41:26.343Z,102142.81
2018-09-01T20:43:53.403Z,102131.23
2018-09-01T20:46:20.997Z,102135.95
2018-09-01T20:48:47.987Z,102144.08
2018-09-01T20:51:14.960Z,102138.12
2018-09-01T20:53:42.560Z,102142.03
2018-09-01T20:56:09.612Z,102143.27
2018-09-01T20:58:36.587Z,102145.00
2018-09-01T21:01:03.582Z,102140.61
2018-09-01T21:03:30.559Z,102137.30
2018-09-01T21:05:57.547Z,102141.87
2018-09-01T21:08:24.820Z,102143.52
2018-09-01T21:10:51.815Z,102144.40
2018-09-01T21:13:18.802Z,102150.88
2018-09-01T21:15:45.968Z,102146.00
2018-09-01T21:18:12.982Z,102156.59
2018-09-01T21:20:40.043Z,102170.45
2018-09-01T21:23:07.119Z,102168.28
2018-09-01T21:25:34.099Z,102167.10
2018-09-01T21:28:01.188Z,102167.72
2018-09-01T21:30:28.179Z,102172.86
2018-09-01T21:32:55.158Z,102169.20
2018-09-01T21:35:22.148Z,102180.97
2018-09-01T21:37:49.504Z,102174.60
2018-09-01T21:40:16.482Z,102183.01
2018-09-01T21:42:43.459Z,102180.36
2018-09-01T21:45:10.532Z,102181.75
2018-09-01T21:47:37.579Z,102179.91
2018-09-01T21:50:04.991Z,102172.50
2018-09-01T21:52:32.023Z,102180.43
2018-09-01T21:54:59.306Z,102176.75
2018-09-01T21:57:26.347Z,102181.29
2018-09-01T21:59:53.480Z,102183.11
2018-09-01T22:02:22.960Z,102183.33
2018-09-01T22:04:56.003Z,102186.12
2018-09-01T22:07:23.015Z,102186.02
2018-09-01T22:09:51.247Z,102184.48
2018-09-01T22:12:18.700Z,102190.14
2018-09-01T22:14:45.958Z,102187.19
2018-09-01T22:17:12.953Z,102188.11
2018-09-01T22:19:39.916Z,102191.94
2018-09-01T22:22:06.898Z,102186.69
2018-09-01T22:24:33.936Z,102189.08
2018-09-01T22:27:00.922Z,102185.45
2018-09-01T22:29:27.923Z,102186.11
2018-09-01T22:31:54.886Z,102182.70
2018-09-01T22:34:21.864Z,102182.55
2018-09-01T22:36:48.948Z,102185.39
2018-09-01T22:39:15.931Z,102184.87
2018-09-01T22:41:42.935Z,102189.17
2018-09-01T22:44:09.994Z,102180.56
2018-09-01T22:46:37.239Z,102189.91
2018-09-01T22:49:04.422Z,102192.23
2018-09-01T22:51:31.476Z,102193.86
2018-09-01T22:53:58.472Z,102191.78
2018-09-01T22:56:25.524Z,102198.34
2018-09-01T22:58:52.544Z,102197.04
2018-09-01T23:01:19.524Z,102193.22
2018-09-01T23:03:46.587Z,102193.53
2018-09-01T23:06:13.568Z,102202.10
2018-09-01T23:08:40.642Z,102202.98
2018-09-01T23:11:07.624Z,102197.39
2018-09-01T23:13:34.627Z,102188.71
2018-09-01T23:16:01.616Z,102187.61
2018-09-01T23:18:28.695Z,102192.33
2018-09-01T23:20:55.708Z,102194.23
2018-09-01T23:23:22.708Z,102193.28
2018-09-01T23:25:49.848Z,102187.77
2018-09-01T23:28:16.828Z,102189.95
2018-09-01T23:30:43.892Z,102187.13
2018-09-01T23:33:10.960Z,102184.31
2018-09-01T23:35:38.023Z,102185.55
2018-09-01T23:38:05.119Z,102183.42
2018-09-01T23:40:32.312Z,102176.91
2018-09-01T23:42:59.353Z,102180.84
2018-09-01T23:45:26.412Z,102185.78
2018-09-01T23:47:53.850Z,102184.31
2018-09-01T23:50:20.830Z,102181.92
2018-09-01T23:52:47.831Z,102185.27
2018-09-01T23:55:15.060Z,102186.20
2018-09-01T23:57:42.039Z,102188.72
